Time;durP1;ratioP1;P1;durP2;ratioP2;P2;SDS_P1;SDS_P2;PMS_P1;PMS_P2;Temp;Humidity;BMP_temperature;BMP_pressure;BME280_temperature;BME280_humidity;BME280_pressure;Samples;Min_cycle;Max_cycle;Signal;HPM_P1;HPM_P2
2023/01/09 14:58:51;;;;;;;4.88;1.27;;;;;;;24.15;35.72;101401.72;5006432;27;4076379;-42
2023/01/09 15:01:22;;;;;;;10.02;1.80;;;;;;;24.38;35.26;101411.75;5113788;28;20039;-42
2023/01/09 15:03:57;;;;;;;3.55;0.98;;;;;;;24.58;34.53;101402.50;5131821;28;20023;-46
2023/01/09 15:06:28;;;;;;;6.15;1.60;;;;;;;24.82;33.86;101416.94;5114110;28;20530;-48
2023/01/09 15:09:01;;;;;;;7.28;1.73;;;;;;;24.94;33.79;101418.88;5131242;28;20118;-44
2023/01/09 15:11:30;;;;;;;7.63;2.30;;;;;;;24.99;33.76;101435.56;5113380;28;20020;-49
2023/01/09 15:14:00;;;;;;;4.72;1.42;;;;;;;25.02;33.60;101451.38;5131298;28;20107;-45
2023/01/09 15:16:29;;;;;;;6.07;1.65;;;;;;;25.10;33.63;101463.75;5131128;28;20485;-44
2023/01/09 15:19:01;;;;;;;7.03;1.92;;;;;;;25.11;33.29;101441.88;5129150;28;20038;-45
2023/01/09 15:21:31;;;;;;;9.57;1.58;;;;;;;25.18;33.37;101456.84;5113151;28;20063;-44
2023/01/09 15:24:20;;;;;;;5.22;1.73;;;;;;;25.18;33.40;101460.38;5112730;28;20443;-46
2023/01/09 15:26:55;;;;;;;7.03;1.60;;;;;;;25.21;33.33;101467.41;5122038;28;20039;-44
2023/01/09 15:29:23;;;;;;;8.02;1.40;;;;;;;25.15;33.40;101469.97;5130602;28;20051;-44
2023/01/09 15:32:06;;;;;;;6.90;1.58;;;;;;;25.15;33.38;101476.06;5113435;28;20030;-45
2023/01/09 15:34:36;;;;;;;3.50;1.13;;;;;;;25.19;33.44;101474.38;5130636;28;20030;-42
2023/01/09 15:37:04;;;;;;;5.55;1.60;;;;;;;25.16;33.25;101467.34;5112530;28;20034;-42
2023/01/09 15:39:36;;;;;;;5.65;1.75;;;;;;;25.17;33.13;101469.13;5130222;28;20512;-44
2023/01/09 15:42:54;;;;;;;7.32;1.60;;;;;;;25.16;33.24;101466.44;5112826;28;20080;-42
2023/01/09 15:44:57;;;;;;;6.78;1.73;;;;;;;25.22;33.28;101473.56;5107938;28;20397;-46
2023/01/09 15:47:28;;;;;;;4.03;1.48;;;;;;;25.24;33.28;101483.22;5111793;28;20430;-42
2023/01/09 15:49:57;;;;;;;4.18;1.10;;;;;;;25.20;33.21;101486.66;5112507;28;20076;-44
2023/01/09 15:52:26;;;;;;;4.88;1.27;;;;;;;25.21;33.16;101501.53;5130478;28;20492;-48
2023/01/09 15:54:55;;;;;;;2.38;1.00;;;;;;;25.24;33.13;101495.44;5130337;28;20096;-43
2023/01/09 15:57:25;;;;;;;6.28;1.58;;;;;;;25.22;33.46;101508.56;5130297;28;20046;-45
2023/01/09 15:59:54;;;;;;;4.03;1.10;;;;;;;25.21;33.26;101512.03;5116253;28;20027;-46
2023/01/09 16:03:10;;;;;;;3.75;1.63;;;;;;;25.26;33.05;101504.22;5116648;28;20024;-46
2023/01/09 16:05:15;;;;;;;4.57;1.40;;;;;;;25.24;33.27;101514.72;5112560;28;20043;-44
2023/01/09 16:07:49;;;;;;;4.75;1.65;;;;;;;25.24;33.27;101519.97;5097819;28;20028;-48
2023/01/09 16:10:36;;;;;;;4.22;1.25;;;;;;;25.23;33.15;101512.09;5116496;28;20034;-46
2023/01/09 16:13:05;;;;;;;5.93;1.30;;;;;;;25.25;33.25;101520.84;5115838;28;20031;-47
2023/01/09 16:15:35;;;;;;;3.08;1.02;;;;;;;25.24;33.35;101522.59;5098759;28;20098;-46
2023/01/09 16:18:26;;;;;;;5.68;1.25;;;;;;;25.22;32.91;101534.81;5098122;28;20465;-45
2023/01/09 16:21:05;;;;;;;4.88;1.17;;;;;;;25.28;33.16;101541.91;5116058;28;20031;-45
2023/01/09 16:23:36;;;;;;;2.75;0.90;;;;;;;25.30;33.02;101542.81;5115987;28;20027;-50
2023/01/09 16:26:06;;;;;;;3.78;1.15;;;;;;;25.28;33.26;101542.81;5115888;28;20523;-46
2023/01/09 16:28:35;;;;;;;5.13;1.33;;;;;;;25.28;32.93;101549.78;5097998;28;20024;-50
2023/01/09 16:31:07;;;;;;;6.28;1.48;;;;;;;25.26;32.77;101546.25;5098079;28;20106;-47
2023/01/09 16:33:36;;;;;;;4.07;1.25;;;;;;;25.28;33.09;101560.28;5116528;28;20374;-46
2023/01/09 16:36:06;;;;;;;3.58;1.27;;;;;;;25.26;32.90;101570.78;5116121;28;20045;-51
2023/01/09 16:38:34;;;;;;;4.78;1.30;;;;;;;25.29;33.09;101564.69;5115638;28;20023;-51
2023/01/09 16:43:54;;;;;;;4.80;1.38;;;;;;;25.32;32.91;101573.50;5108157;28;20478;-48
2023/01/09 16:46:23;;;;;;;5.40;1.33;;;;;;;25.30;33.11;101571.72;5115548;28;20027;-50
2023/01/09 16:48:51;;;;;;;3.47;1.35;;;;;;;25.31;32.97;101579.63;5097400;28;20034;-52
2023/01/09 16:51:22;;;;;;;3.72;1.10;;;;;;;25.33;32.97;101583.16;5097576;28;20111;-49
2023/01/09 16:53:51;;;;;;;3.42;1.25;;;;;;;25.30;32.85;101585.75;5115711;28;20474;-48
2023/01/09 16:56:21;;;;;;;2.70;1.10;;;;;;;25.29;33.05;101593.56;5115446;28;20031;-49
2023/01/09 16:58:52;;;;;;;6.05;1.52;;;;;;;25.31;32.97;101598.03;5115357;28;20039;-51
2023/01/09 17:01:21;;;;;;;2.72;1.08;;;;;;;25.31;33.03;101610.25;5098049;28;20020;-50
2023/01/09 17:03:49;;;;;;;3.67;1.30;;;;;;;25.29;32.93;101615.47;5115741;28;20098;-50
2023/01/09 17:06:23;;;;;;;5.25;1.13;;;;;;;25.24;33.16;101613.59;5115567;28;20047;-43
2023/01/09 17:08:51;;;;;;;3.08;1.10;;;;;;;25.24;33.18;101611.88;5115287;28;20085;-43
2023/01/09 17:11:23;;;;;;;5.20;1.60;;;;;;;25.28;32.93;101611.09;5096325;28;20049;-43
2023/01/09 17:13:52;;;;;;;4.30;1.40;;;;;;;25.29;32.92;101610.22;5115262;28;20023;-47
2023/01/09 17:16:21;;;;;;;3.92;1.10;;;;;;;25.31;33.05;101605.00;5115490;28;20027;-44
2023/01/09 17:18:49;;;;;;;3.85;1.40;;;;;;;25.31;33.05;101620.75;5115114;28;20389;-45
2023/01/09 17:21:25;;;;;;;7.05;1.58;;;;;;;25.28;33.05;101605.84;5115013;28;20466;-50
2023/01/09 17:29:31;;;;;;;2.63;1.02;;;;;;;25.28;33.14;101626.84;5107441;28;20028;-43
2023/01/09 17:32:00;;;;;;;5.22;1.35;;;;;;;25.27;33.29;101625.06;5096922;28;20362;-44
2023/01/09 17:34:28;;;;;;;9.88;1.73;;;;;;;25.32;33.25;101628.66;5115125;28;20423;-51
2023/01/09 17:36:57;;;;;;;7.03;1.27;;;;;;;25.31;33.28;101629.53;5096481;28;20114;-45
2023/01/09 17:39:25;;;;;;;3.60;1.73;;;;;;;25.33;33.34;101634.81;5114484;28;20088;-48
2023/01/09 17:41:53;;;;;;;6.20;1.77;;;;;;;25.35;33.33;101633.09;5115139;28;20397;-43
2023/01/09 17:44:21;;;;;;;12.45;2.38;;;;;;;25.37;32.85;101634.00;5114981;28;20051;-47
2023/01/09 17:46:49;;;;;;;5.10;1.70;;;;;;;25.38;33.13;101633.16;5114393;28;20066;-48
2023/01/09 17:49:20;;;;;;;5.20;1.48;;;;;;;25.37;33.32;101638.34;5114729;28;20403;-44
2023/01/09 17:51:48;;;;;;;4.75;1.73;;;;;;;25.36;33.29;101637.47;5096109;28;20059;-41
2023/01/09 17:54:17;;;;;;;11.45;1.73;;;;;;;25.41;32.95;101648.94;5114327;28;20028;-42
2023/01/09 17:56:48;;;;;;;5.45;1.80;;;;;;;25.39;33.02;101647.16;5114028;28;20559;-44
2023/01/09 17:59:17;;;;;;;5.95;1.40;;;;;;;25.40;32.95;101654.19;5114073;28;20466;-46
2023/01/09 18:01:45;;;;;;;8.73;1.25;;;;;;;25.40;33.16;101667.31;5114142;28;20031;-45
2023/01/09 18:04:14;;;;;;;5.07;1.30;;;;;;;25.44;33.20;101677.06;5079752;28;20028;-52
2023/01/09 18:06:43;;;;;;;7.15;2.75;;;;;;;25.51;32.65;101670.16;5096309;28;20027;-46
2023/01/09 18:09:16;;;;;;;4.43;1.45;;;;;;;25.59;32.79;101665.91;5096255;28;20023;-46
2023/01/09 18:11:45;;;;;;;8.98;1.55;;;;;;;25.49;32.98;101656.97;5114273;28;20028;-44
2023/01/09 18:14:13;;;;;;;8.57;1.50;;;;;;;25.47;33.07;101667.47;5114268;28;20023;-42
2023/01/09 18:16:42;;;;;;;8.63;1.58;;;;;;;25.44;33.00;101664.78;5114382;28;20034;-46
2023/01/09 18:19:11;;;;;;;2.45;1.00;;;;;;;25.44;33.22;101661.28;5114030;28;20024;-41
2023/01/09 18:21:38;;;;;;;4.93;1.58;;;;;;;25.45;33.03;101660.44;5111419;27;20020;-42
2023/01/09 18:24:06;;;;;;;6.47;1.33;;;;;;;25.41;33.05;101661.19;5121154;27;20059;-41
2023/01/09 18:26:33;;;;;;;5.90;1.45;;;;;;;25.42;33.01;101660.38;5123332;27;20023;-42
2023/01/09 18:29:01;;;;;;;5.05;1.90;;;;;;;25.42;33.07;101663.00;5104666;27;20098;-42
2023/01/09 18:31:29;;;;;;;6.75;1.52;;;;;;;25.42;33.09;101673.50;5120466;27;20024;-46
2023/01/09 18:34:00;;;;;;;4.78;1.30;;;;;;;25.41;33.37;101674.34;5086043;28;20536;-42
2023/01/09 18:36:28;;;;;;;4.18;1.23;;;;;;;25.41;33.12;101669.94;5101056;28;20409;-41
2023/01/09 18:38:58;;;;;;;6.15;1.23;;;;;;;25.43;33.05;101675.28;5120936;27;20043;-47
2023/01/09 18:41:26;;;;;;;7.45;1.63;;;;;;;25.44;33.24;101671.81;5106482;28;20031;-43
2023/01/09 18:43:57;;;;;;;3.15;1.20;;;;;;;25.45;33.06;101670.94;5102879;28;20388;-42
2023/01/09 18:46:29;;;;;;;6.30;1.30;;;;;;;25.44;33.13;101683.19;5124422;28;20102;-43
2023/01/09 18:48:58;;;;;;;3.67;1.30;;;;;;;25.46;33.39;101685.84;5121664;28;20024;-41
2023/01/09 18:51:26;;;;;;;8.95;1.65;;;;;;;25.44;33.47;101682.31;5116435;28;20022;-44
2023/01/09 18:53:55;;;;;;;6.30;2.25;;;;;;;25.45;33.31;101678.81;5123454;28;20069;-49
2023/01/09 18:56:23;;;;;;;3.42;1.30;;;;;;;25.46;33.29;101680.59;5103295;28;20023;-41
2023/01/09 18:58:56;;;;;;;4.15;1.15;;;;;;;25.48;33.20;101700.78;5120895;28;20039;-41
2023/01/09 19:01:25;;;;;;;7.38;1.50;;;;;;;25.50;33.25;101706.03;5105851;28;20031;-41
2023/01/09 19:03:53;;;;;;;4.53;1.10;;;;;;;25.51;33.11;101710.44;5121533;28;20385;-43
2023/01/09 19:06:22;;;;;;;4.57;1.30;;;;;;;25.53;33.24;101726.25;5104563;28;20020;-41
2023/01/09 19:08:50;;;;;;;7.97;1.40;;;;;;;25.51;33.14;101728.81;5122001;28;20035;-46
2023/01/09 19:11:18;;;;;;;3.92;1.05;;;;;;;25.51;33.53;101723.56;5122172;28;20035;-46
2023/01/09 19:13:46;;;;;;;4.97;0.90;;;;;;;25.52;32.97;101721.84;5122549;28;20019;-42
2023/01/09 19:16:14;;;;;;;3.72;1.20;;;;;;;25.50;33.34;101721.81;5104563;28;20085;-46
2023/01/09 19:18:43;;;;;;;7.20;1.15;;;;;;;25.47;33.46;101727.03;5101988;28;20061;-44
2023/01/09 19:21:13;;;;;;;4.50;1.15;;;;;;;25.49;33.31;101722.66;5104937;28;20027;-48
2023/01/09 19:23:43;;;;;;;3.00;1.10;;;;;;;25.50;33.25;101721.81;5121516;28;20022;-42
2023/01/09 19:26:19;;;;;;;3.92;0.98;;;;;;;25.49;33.52;101725.28;5104903;28;20034;-41
2023/01/09 19:28:49;;;;;;;4.13;1.20;;;;;;;25.50;33.30;101745.44;5121864;28;20020;-41
2023/01/09 19:31:17;;;;;;;6.82;1.20;;;;;;;25.53;33.27;101736.75;5104798;28;20377;-46
2023/01/09 19:33:45;;;;;;;4.18;1.30;;;;;;;25.50;33.27;101749.84;5105059;27;20020;-42
2023/01/09 19:36:14;;;;;;;3.03;1.20;;;;;;;25.52;33.14;101743.72;5122495;27;20050;-42
2023/01/09 19:38:42;;;;;;;1.90;0.90;;;;;;;25.53;33.26;101729.75;5125636;27;20035;-41
2023/01/09 19:41:13;;;;;;;5.50;0.95;;;;;;;25.50;33.15;101740.19;5127321;27;20038;-42
2023/01/09 19:43:42;;;;;;;4.85;1.23;;;;;;;25.52;33.12;101749.00;5124673;27;20023;-45
2023/01/09 19:46:11;;;;;;;2.53;1.00;;;;;;;25.52;33.28;101751.63;5127125;27;20019;-45
2023/01/09 19:48:41;;;;;;;5.15;0.90;;;;;;;25.54;33.28;101762.19;5106365;27;20088;-42
2023/01/09 19:51:09;;;;;;;4.90;1.58;;;;;;;25.55;33.10;101763.94;5106362;28;20023;-45
2023/01/09 19:53:38;;;;;;;8.50;1.10;;;;;;;25.54;32.86;101756.91;5109733;27;20537;-44
2023/01/09 19:56:17;;;;;;;2.63;1.02;;;;;;;25.47;32.99;101756.78;5080423;27;20031;-42
2023/01/09 19:58:50;;;;;;;3.67;1.25;;;;;;;25.48;33.35;101763.81;5121719;27;20069;-42
2023/01/09 20:01:23;;;;;;;4.03;1.10;;;;;;;25.48;33.14;101755.94;5125293;27;20037;-42
2023/01/09 20:03:52;;;;;;;5.57;1.48;;;;;;;25.51;32.89;101748.97;5125368;27;20384;-42
2023/01/09 20:06:23;;;;;;;2.80;1.35;;;;;;;25.52;33.22;101750.75;5125436;27;20077;-43
2023/01/09 20:08:54;;;;;;;3.10;1.30;;;;;;;25.56;33.18;101748.19;5125570;27;20107;-42
2023/01/09 20:11:24;;;;;;;3.72;1.40;;;;;;;25.57;32.95;101749.97;5106817;27;20035;-47
2023/01/09 20:17:16;;;;;;;3.40;1.02;;;;;;;25.58;32.89;101766.59;5110862;27;20088;-48
2023/01/09 20:19:45;;;;;;;3.70;1.17;;;;;;;25.57;33.02;101760.47;5123954;27;20024;-45
2023/01/09 20:22:13;;;;;;;4.43;1.10;;;;;;;25.59;32.93;101766.66;5126145;27;20035;-42
2023/01/09 20:24:41;;;;;;;11.15;1.45;;;;;;;25.64;32.80;101772.00;5123300;27;20038;-47
2023/01/09 20:27:09;;;;;;;5.03;1.17;;;;;;;25.63;32.78;101776.38;5105100;27;20034;-44
2023/01/09 20:29:38;;;;;;;4.47;1.45;;;;;;;25.57;32.86;101789.38;5105422;28;20493;-44
2023/01/09 20:32:06;;;;;;;3.92;1.25;;;;;;;25.63;32.99;101786.88;5123535;27;20115;-46
2023/01/09 20:34:35;;;;;;;5.63;1.08;;;;;;;25.65;32.88;101783.41;5126628;27;20027;-46
2023/01/09 20:37:02;;;;;;;4.30;1.42;;;;;;;25.65;33.07;101781.66;5125419;27;20023;-44
2023/01/09 20:39:31;;;;;;;11.10;1.20;;;;;;;25.67;32.89;101776.41;5120453;27;20029;-50
2023/01/09 20:41:58;;;;;;;4.13;1.50;;;;;;;25.69;32.75;101769.44;5119556;27;20106;-46
2023/01/09 20:44:26;;;;;;;4.70;1.30;;;;;;;25.69;32.98;101762.47;5118748;27;20031;-52
2023/01/09 20:46:53;;;;;;;6.18;2.10;;;;;;;25.67;33.04;101773.78;5124596;27;20059;-47
2023/01/09 20:49:21;;;;;;;3.80;1.00;;;;;;;25.69;32.81;101772.06;5099147;27;20041;-46
2023/01/09 20:51:56;;;;;;;8.38;1.20;;;;;;;25.69;32.66;101753.66;5125972;27;20094;-43
2023/01/09 20:54:24;;;;;;;6.00;1.00;;;;;;;25.72;32.87;101753.72;5123999;27;20027;-49
2023/01/09 20:56:52;;;;;;;4.28;1.40;;;;;;;25.72;32.67;101743.22;5123534;27;20051;-47
2023/01/09 20:59:20;;;;;;;4.75;1.00;;;;;;;25.70;33.07;101752.81;5105167;28;20016;-44
2023/01/09 21:01:49;;;;;;;4.90;1.25;;;;;;;25.73;32.34;101753.75;5126079;27;20027;-44
2023/01/09 21:04:17;;;;;;;5.63;1.10;;;;;;;25.72;32.90;101774.75;5122868;27;20363;-50
2023/01/09 21:06:45;;;;;;;4.90;1.60;;;;;;;25.73;32.80;101752.88;5104096;28;20031;-46
2023/01/09 21:09:12;;;;;;;4.55;1.02;;;;;;;25.71;32.69;101755.50;5125899;27;20392;-44
2023/01/09 21:11:40;;;;;;;4.10;1.02;;;;;;;25.77;32.68;101752.09;5122965;27;20050;-44
2023/01/09 21:14:08;;;;;;;3.88;1.33;;;;;;;25.81;32.66;101745.13;5124997;27;20035;-46
2023/01/09 21:16:37;;;;;;;3.80;1.13;;;;;;;25.83;32.70;101760.06;5123097;27;20023;-47
2023/01/09 21:19:04;;;;;;;4.38;1.40;;;;;;;25.79;32.56;101761.75;5124068;27;20023;-45
2023/01/09 21:21:32;;;;;;;2.45;1.10;;;;;;;25.83;32.47;101767.94;5116771;27;20104;-46
2023/01/09 21:24:00;;;;;;;5.13;1.40;;;;;;;25.85;32.73;101778.50;5119270;27;20020;-46
2023/01/09 21:26:29;;;;;;;3.25;0.77;;;;;;;25.81;32.47;101789.81;5112057;27;20505;-47
2023/01/09 21:28:58;;;;;;;3.55;1.17;;;;;;;25.83;32.61;101788.09;5116395;27;20437;-47
2023/01/09 21:31:32;;;;;;;2.80;1.05;;;;;;;25.79;32.72;101790.66;5116835;27;20135;-47
2023/01/09 21:34:03;;;;;;;5.10;1.25;;;;;;;25.86;32.41;101788.16;5097085;27;20030;-48
2023/01/09 21:36:30;;;;;;;3.88;1.35;;;;;;;25.83;32.61;101782.84;5097338;27;20039;-50
2023/01/09 21:38:59;;;;;;;5.80;1.63;;;;;;;25.89;32.63;101793.47;5105166;27;20019;-46
2023/01/09 21:47:02;;;;;;;4.80;1.30;;;;;;;25.93;32.38;101782.13;5105368;27;20031;-49
2023/01/09 21:49:33;;;;;;;2.85;1.30;;;;;;;25.92;32.48;101785.63;5124030;27;20111;-47
2023/01/09 21:52:03;;;;;;;5.88;1.30;;;;;;;25.91;32.56;101781.22;5117284;27;20375;-47
2023/01/09 21:54:31;;;;;;;6.63;1.30;;;;;;;25.92;32.36;101778.63;5122055;27;20394;-42
2023/01/09 21:56:58;;;;;;;4.22;1.33;;;;;;;25.91;32.43;101786.47;5100892;28;20436;-40
2023/01/09 21:59:27;;;;;;;7.97;1.77;;;;;;;25.90;32.48;101782.06;5099855;28;20475;-49
2023/01/09 22:01:55;;;;;;;5.95;1.85;;;;;;;25.93;32.57;101787.41;5099713;28;20045;-44
2023/01/09 22:04:26;;;;;;;5.47;1.73;;;;;;;25.91;32.34;101781.22;5104043;28;20058;-47
2023/01/09 22:06:55;;;;;;;6.05;1.27;;;;;;;25.95;32.47;101780.44;5100856;28;20024;-46
2023/01/09 22:09:23;;;;;;;4.38;1.38;;;;;;;25.92;32.37;101770.75;5101063;28;20032;-46
2023/01/09 22:11:51;;;;;;;3.53;1.42;;;;;;;25.94;32.28;101778.66;5097039;28;21339;-51
2023/01/09 22:14:19;;;;;;;6.57;2.03;;;;;;;25.91;32.29;101776.88;5093291;28;20110;-50
2023/01/09 22:16:47;;;;;;;8.30;1.77;;;;;;;25.91;32.34;101770.72;5092578;28;20054;-48
2023/01/09 22:19:16;;;;;;;5.15;1.75;;;;;;;25.94;32.29;101765.50;5091850;28;20385;-48
2023/01/09 22:21:46;;;;;;;4.80;1.48;;;;;;;25.94;32.52;101769.03;5092970;28;20031;-44
2023/01/09 22:24:15;;;;;;;3.88;1.40;;;;;;;25.95;32.43;101756.75;5083591;28;20025;-42
2023/01/09 22:26:44;;;;;;;6.65;1.88;;;;;;;25.97;32.43;101743.66;5072486;28;20024;-40
2023/01/09 22:29:12;;;;;;;5.68;1.60;;;;;;;25.92;32.53;101749.72;5072795;28;20028;-40
2023/01/09 22:31:41;;;;;;;4.50;1.70;;;;;;;25.94;32.58;101766.41;5071522;28;20025;-48
2023/01/09 22:34:14;;;;;;;5.38;1.50;;;;;;;25.90;32.40;101758.41;5072700;28;20048;-44
2023/01/09 22:36:43;;;;;;;4.75;1.77;;;;;;;25.94;32.34;101761.16;5072626;28;20032;-46
2023/01/09 22:39:14;;;;;;;6.93;2.00;;;;;;;25.93;32.24;101755.84;5071244;28;20035;-39
2023/01/09 22:41:42;;;;;;;4.95;1.90;;;;;;;25.92;32.33;101754.97;5073168;28;20040;-42
2023/01/09 22:44:12;;;;;;;6.03;1.88;;;;;;;25.92;32.63;101759.34;5071748;28;20104;-46
2023/01/09 22:46:40;;;;;;;7.47;1.95;;;;;;;25.90;32.50;101767.22;5072879;28;20040;-39
2023/01/09 22:49:10;;;;;;;7.43;1.83;;;;;;;25.86;32.30;101764.50;5072815;28;20392;-41
2023/01/09 22:51:39;;;;;;;4.40;1.70;;;;;;;25.88;32.61;101775.94;5072585;28;20446;-42
2023/01/09 22:54:08;;;;;;;4.63;1.55;;;;;;;25.86;32.54;101781.16;5072311;28;20037;-43
2023/01/09 22:56:37;;;;;;;5.57;2.25;;;;;;;25.80;32.45;101773.16;5073262;28;20033;-45
2023/01/09 22:59:05;;;;;;;5.72;1.48;;;;;;;25.81;32.25;101782.81;5092895;28;20028;-42
2023/01/09 23:01:33;;;;;;;6.28;2.10;;;;;;;25.87;32.08;101777.66;5092785;28;20429;-42
2023/01/09 23:04:03;;;;;;;6.35;1.95;;;;;;;25.85;32.28;101779.38;5092045;28;20028;-40
2023/01/09 23:06:32;;;;;;;6.40;1.95;;;;;;;25.84;32.34;101776.72;5092732;28;20038;-39
2023/01/09 23:08:59;;;;;;;6.78;1.77;;;;;;;25.88;32.14;101779.44;5094841;28;20514;-44
2023/01/09 23:12:09;;;;;;;4.65;1.60;;;;;;;25.83;32.45;101782.84;5096958;28;20036;-44
2023/01/09 23:14:17;;;;;;;7.82;1.80;;;;;;;25.83;32.25;101772.34;5091045;28;20043;-40
2023/01/09 23:16:46;;;;;;;7.75;2.00;;;;;;;25.81;32.43;101771.41;5096740;28;20481;-39
2023/01/09 23:19:15;;;;;;;6.60;2.25;;;;;;;25.77;32.32;101768.72;5096796;28;20446;-41
2023/01/09 23:21:44;;;;;;;6.47;2.20;;;;;;;25.78;32.29;101769.63;5096888;28;20390;-41
2023/01/09 23:24:14;;;;;;;7.88;2.03;;;;;;;25.78;32.26;101770.50;5096373;28;20028;-42
2023/01/09 23:26:43;;;;;;;6.95;2.20;;;;;;;25.78;32.18;101767.00;5096887;28;20020;-43
2023/01/09 23:29:12;;;;;;;6.30;2.17;;;;;;;25.79;32.22;101776.66;5096695;28;20051;-41
2023/01/09 23:31:40;;;;;;;10.52;2.47;;;;;;;25.78;32.07;101773.13;5096636;28;20020;-40
2023/01/09 23:34:08;;;;;;;9.77;2.17;;;;;;;25.84;32.01;101761.81;5096822;28;20032;-41
2023/01/09 23:36:37;;;;;;;6.10;1.95;;;;;;;25.84;32.21;101766.22;5096132;28;20035;-40
2023/01/09 23:39:07;;;;;;;7.18;2.38;;;;;;;25.82;32.20;101760.03;5096503;28;20089;-40
2023/01/09 23:44:24;;;;;;;8.05;1.88;;;;;;;25.76;32.00;101773.97;5088514;28;20042;-44
2023/01/09 23:46:52;;;;;;;5.90;1.85;;;;;;;25.81;32.14;101766.16;5096489;28;20126;-40
2023/01/09 23:49:21;;;;;;;6.22;2.05;;;;;;;25.77;32.29;101773.09;5096214;28;20031;-40
2023/01/09 23:51:50;;;;;;;5.68;1.88;;;;;;;25.87;31.83;101771.53;5096701;28;20028;-40
2023/01/09 23:54:18;;;;;;;5.78;1.95;;;;;;;25.88;32.19;101770.69;5096189;28;20077;-40
2023/01/09 23:56:46;;;;;;;6.25;1.58;;;;;;;25.81;31.92;101767.06;5095975;28;20024;-40
2023/01/09 23:59:16;;;;;;;5.45;1.73;;;;;;;25.82;31.64;101771.44;5096187;28;20028;-41
